EDVK/KSF METAR and TAF weather

Enter ICAO airport designator
Station Type Date Time Source
EDVK METAR 2021/04/14 17:50 UTC NOAA

EDVK 141750Z 06004KT 360V140 9999 -SHRA FEW005 SCT020 BKN040CB 02/01 Q1027


Station Type Date Time Source
EDVK Decoded METAR 2021/04/14 17:50 UTC NOAA

Error!

Station Type Date Time Source
EDVK TAF UTC NOAA

Error!

Example: see airport list